createdAt,value
2019-03-04T00:00:00.379Z,7.70
2019-03-04T00:02:08.238Z,7.70
2019-03-04T00:04:15.842Z,7.70
2019-03-04T00:06:23.509Z,7.70
2019-03-04T00:08:32.904Z,7.70
2019-03-04T00:10:40.937Z,7.72
2019-03-04T00:12:48.721Z,7.69
2019-03-04T00:14:56.590Z,7.70
2019-03-04T00:17:04.310Z,7.69
2019-03-04T00:19:12.118Z,7.72
2019-03-04T00:21:19.674Z,7.73
2019-03-04T00:23:27.362Z,7.75
2019-03-04T00:25:35.153Z,7.77
2019-03-04T00:27:42.815Z,7.74
2019-03-04T00:29:50.368Z,7.72
2019-03-04T00:31:58.001Z,7.72
2019-03-04T00:34:05.595Z,7.75
2019-03-04T00:36:13.425Z,7.72
2019-03-04T00:38:21.131Z,7.70
2019-03-04T00:40:29.392Z,7.72
2019-03-04T00:42:37.027Z,7.74
2019-03-04T00:44:44.693Z,7.76
2019-03-04T00:46:52.574Z,7.74
2019-03-04T00:49:00.123Z,7.78
2019-03-04T00:51:07.635Z,7.75
2019-03-04T00:53:15.396Z,7.74
2019-03-04T00:55:23.200Z,7.73
2019-03-04T00:57:30.725Z,7.75
2019-03-04T00:59:38.224Z,7.76
2019-03-04T01:01:45.940Z,7.75
2019-03-04T01:03:53.673Z,7.76
2019-03-04T01:06:03.392Z,7.74
2019-03-04T01:08:11.012Z,7.73
2019-03-04T01:10:19.169Z,7.71
2019-03-04T01:12:26.742Z,7.71
2019-03-04T01:14:34.494Z,7.70
2019-03-04T01:16:42.031Z,7.68
2019-03-04T01:18:49.685Z,7.69
2019-03-04T01:20:57.376Z,7.67
2019-03-04T01:23:05.249Z,7.68
2019-03-04T01:25:15.652Z,7.68
2019-03-04T01:27:24.197Z,7.71
2019-03-04T01:29:31.794Z,7.71
2019-03-04T01:31:39.437Z,7.71
2019-03-04T01:33:47.295Z,7.69
2019-03-04T01:35:54.949Z,7.69
2019-03-04T01:38:02.658Z,7.71
2019-03-04T01:40:13.815Z,7.74
2019-03-04T01:42:21.457Z,7.68
2019-03-04T01:44:29.199Z,7.70
2019-03-04T01:46:36.794Z,7.73
2019-03-04T01:48:44.578Z,7.70
2019-03-04T01:50:52.325Z,7.73
2019-03-04T01:52:59.836Z,7.71
2019-03-04T01:55:08.314Z,7.69
2019-03-04T01:57:16.077Z,7.67
2019-03-04T01:59:23.840Z,7.63
2019-03-04T02:01:31.674Z,7.68
2019-03-04T02:03:39.356Z,7.62
2019-03-04T02:05:47.116Z,7.65
2019-03-04T02:07:54.801Z,7.64
2019-03-04T02:10:02.546Z,7.62
2019-03-04T02:12:10.331Z,7.61
2019-03-04T02:14:17.833Z,7.60
2019-03-04T02:16:25.544Z,7.56
2019-03-04T02:18:33.274Z,7.61
2019-03-04T02:20:40.795Z,7.60
2019-03-04T02:22:48.754Z,7.62
2019-03-04T02:24:56.408Z,7.58
2019-03-04T02:27:04.171Z,7.56
2019-03-04T02:29:11.890Z,7.57
2019-03-04T02:31:19.614Z,7.60
2019-03-04T02:33:27.167Z,7.57
2019-03-04T02:35:34.991Z,7.55
2019-03-04T02:37:42.728Z,7.59
2019-03-04T02:39:50.361Z,7.58
2019-03-04T02:41:58.004Z,7.59
2019-03-04T02:44:05.848Z,7.61
2019-03-04T02:46:13.605Z,7.61
2019-03-04T02:48:21.276Z,7.58
2019-03-04T02:50:28.852Z,7.66
2019-03-04T02:52:36.287Z,7.70
2019-03-04T02:54:43.993Z,7.69
2019-03-04T02:56:51.641Z,7.62
2019-03-04T02:58:59.234Z,7.66
2019-03-04T03:01:07.204Z,7.70
2019-03-04T03:03:14.975Z,7.71
2019-03-04T03:05:22.800Z,7.73
2019-03-04T03:07:30.640Z,7.71
2019-03-04T03:09:38.317Z,7.69
2019-03-04T03:11:45.853Z,7.71
2019-03-04T03:13:53.658Z,7.67
2019-03-04T03:16:01.174Z,7.72
2019-03-04T03:18:09.159Z,7.72
2019-03-04T03:20:16.828Z,7.70
2019-03-04T03:22:24.574Z,7.72
2019-03-04T03:24:32.445Z,7.68
2019-03-04T03:26:40.272Z,7.70
2019-03-04T03:28:48.126Z,7.69
2019-03-04T03:30:55.854Z,7.68
2019-03-04T03:33:03.531Z,7.67
2019-03-04T03:35:11.843Z,7.67
2019-03-04T03:37:19.540Z,7.69
2019-03-04T03:39:27.126Z,7.65
2019-03-04T03:41:34.909Z,7.69
2019-03-04T03:43:42.616Z,7.70
2019-03-04T03:45:50.797Z,7.73
2019-03-04T03:47:58.668Z,7.70
2019-03-04T03:50:08.883Z,7.71
2019-03-04T03:52:16.547Z,7.71
2019-03-04T03:54:24.216Z,7.70
2019-03-04T03:56:32.166Z,7.64
2019-03-04T03:58:40.060Z,7.67
2019-03-04T04:00:47.664Z,7.66
2019-03-04T04:02:55.453Z,7.63
2019-03-04T04:05:03.388Z,7.67
2019-03-04T04:07:11.164Z,7.69
2019-03-04T04:09:19.020Z,7.69
2019-03-04T04:11:26.791Z,7.63
2019-03-04T04:13:34.147Z,7.68
2019-03-04T04:15:41.936Z,7.70
2019-03-04T04:17:49.883Z,7.71
2019-03-04T04:19:57.380Z,7.72
2019-03-04T04:22:04.990Z,7.69
2019-03-04T04:24:12.730Z,7.70
2019-03-04T04:26:23.586Z,7.73
2019-03-04T04:28:32.046Z,7.72
2019-03-04T04:30:40.707Z,7.77
2019-03-04T04:32:48.229Z,7.76
2019-03-04T04:34:55.899Z,7.77
2019-03-04T04:37:03.392Z,7.76
2019-03-04T04:39:11.176Z,7.76
2019-03-04T04:41:18.846Z,7.80
2019-03-04T04:43:26.542Z,7.85
2019-03-04T04:45:34.687Z,7.82
2019-03-04T04:47:42.407Z,7.86
2019-03-04T04:49:50.051Z,7.85
2019-03-04T04:51:57.767Z,7.85
2019-03-04T04:54:05.594Z,7.83
2019-03-04T04:56:13.530Z,7.81
2019-03-04T04:58:21.199Z,7.80
2019-03-04T05:00:31.179Z,7.87
2019-03-04T05:02:38.670Z,7.86
2019-03-04T05:04:46.310Z,7.85
2019-03-04T05:06:54.115Z,7.84
2019-03-04T05:09:01.778Z,7.85
2019-03-04T05:11:09.344Z,7.85
2019-03-04T05:13:16.897Z,7.82
2019-03-04T05:15:24.536Z,7.80
2019-03-04T05:17:32.139Z,7.79
2019-03-04T05:19:39.906Z,7.77
2019-03-04T05:21:47.601Z,7.79
2019-03-04T05:23:55.242Z,7.81
2019-03-04T05:26:03.058Z,7.78
2019-03-04T05:28:10.725Z,7.79
2019-03-04T05:30:19.945Z,7.81
2019-03-04T05:32:27.611Z,7.78
2019-03-04T05:34:35.443Z,7.78
2019-03-04T05:36:43.337Z,7.77
2019-03-04T05:38:51.231Z,7.76
2019-03-04T05:40:58.926Z,7.79
2019-03-04T05:43:06.620Z,7.80
2019-03-04T05:45:16.135Z,7.76
2019-03-04T05:47:23.870Z,7.79
2019-03-04T05:49:32.029Z,7.80
2019-03-04T05:51:39.812Z,7.80
2019-03-04T05:53:47.441Z,7.82
2019-03-04T05:55:55.130Z,7.84
2019-03-04T05:58:02.901Z,7.85
2019-03-04T06:00:15.813Z,7.87
2019-03-04T06:02:23.592Z,7.89
2019-03-04T06:04:31.273Z,7.93
2019-03-04T06:07:06.367Z,7.93
2019-03-04T06:09:14.227Z,7.91
2019-03-04T06:11:21.868Z,7.96
2019-03-04T06:13:29.744Z,7.99
2019-03-04T06:15:37.769Z,8.01
2019-03-04T06:17:45.597Z,8.04
2019-03-04T06:19:53.524Z,8.06
2019-03-04T06:22:01.481Z,8.06
2019-03-04T06:24:09.119Z,8.06
2019-03-04T06:26:16.860Z,8.09
2019-03-04T06:28:24.496Z,8.09
2019-03-04T06:30:32.230Z,8.13
2019-03-04T06:32:40.003Z,8.16
2019-03-04T06:34:47.765Z,8.17
2019-03-04T06:36:55.554Z,8.18
2019-03-04T06:39:05.088Z,8.19
2019-03-04T06:41:12.782Z,8.27
2019-03-04T06:43:20.551Z,8.27
2019-03-04T06:45:28.419Z,8.27
2019-03-04T06:47:36.072Z,8.28
2019-03-04T06:49:43.700Z,8.27
2019-03-04T06:51:52.782Z,8.33
2019-03-04T06:55:00.542Z,8.32
2019-03-04T06:57:28.207Z,8.38
2019-03-04T06:59:59.935Z,8.44
2019-03-04T07:02:12.609Z,8.41
2019-03-04T07:05:08.007Z,8.45
2019-03-04T07:07:15.672Z,8.48
2019-03-04T07:09:23.434Z,8.47
2019-03-04T07:11:31.707Z,8.52
2019-03-04T07:13:39.424Z,8.52
2019-03-04T07:15:47.143Z,8.55
2019-03-04T07:17:54.985Z,8.56
2019-03-04T07:20:11.046Z,8.59
2019-03-04T07:22:19.121Z,8.61
2019-03-04T07:24:27.566Z,8.60
2019-03-04T07:26:35.566Z,8.61
2019-03-04T07:28:43.574Z,8.64
2019-03-04T07:30:54.335Z,8.68
2019-03-04T07:33:03.019Z,8.74
2019-03-04T07:35:11.615Z,8.79
2019-03-04T07:37:20.023Z,8.82
2019-03-04T07:39:28.095Z,8.82
2019-03-04T07:41:38.659Z,8.88
2019-03-04T07:43:46.516Z,8.88
2019-03-04T07:45:54.287Z,8.92
2019-03-04T07:48:03.316Z,8.97
2019-03-04T07:50:11.117Z,9.02
2019-03-04T07:52:18.840Z,9.15
2019-03-04T07:54:26.683Z,9.15
2019-03-04T07:56:34.399Z,9.26
2019-03-04T07:58:42.458Z,9.30
2019-03-04T08:00:50.217Z,9.52
2019-03-04T08:02:57.770Z,9.59
2019-03-04T08:05:05.675Z,9.48
2019-03-04T08:07:50.231Z,9.47
2019-03-04T08:11:24.923Z,9.68
2019-03-04T08:13:44.641Z,9.81
2019-03-04T08:15:55.919Z,10.02
2019-03-04T08:18:03.791Z,10.12
2019-03-04T08:20:14.271Z,10.33
2019-03-04T08:22:22.115Z,10.30
2019-03-04T08:24:29.867Z,10.46
2019-03-04T08:26:38.662Z,10.53
2019-03-04T08:28:46.559Z,10.56
2019-03-04T08:30:54.295Z,10.72
2019-03-04T08:33:02.080Z,10.78
2019-03-04T08:35:10.248Z,10.81
2019-03-04T08:37:26.793Z,10.84
2019-03-04T08:39:35.114Z,10.93
2019-03-04T08:41:42.884Z,11.11
2019-03-04T08:43:50.698Z,11.04
2019-03-04T08:45:58.339Z,11.15
2019-03-04T08:48:06.115Z,11.29
2019-03-04T08:50:14.848Z,11.33
2019-03-04T08:52:22.770Z,11.41
2019-03-04T08:54:30.585Z,11.35
2019-03-04T08:56:38.352Z,11.51
2019-03-04T08:58:46.465Z,11.35
2019-03-04T09:00:54.117Z,11.30
2019-03-04T09:03:01.684Z,11.49
2019-03-04T09:05:09.957Z,11.38
2019-03-04T09:07:17.772Z,11.63
2019-03-04T09:09:25.559Z,11.74
2019-03-04T09:11:33.332Z,11.85
2019-03-04T09:13:40.915Z,11.99
2019-03-04T09:15:48.719Z,11.81
2019-03-04T09:17:56.510Z,11.83
2019-03-04T09:20:04.622Z,11.91
2019-03-04T09:22:12.535Z,12.04
2019-03-04T09:24:20.340Z,12.05
2019-03-04T09:26:28.554Z,12.20
2019-03-04T09:28:36.968Z,11.98
2019-03-04T09:30:44.790Z,12.20
2019-03-04T09:32:52.887Z,12.30
2019-03-04T09:35:00.670Z,12.31
2019-03-04T09:37:08.727Z,12.30
2019-03-04T09:39:18.703Z,12.56
2019-03-04T09:41:26.671Z,12.31
2019-03-04T09:43:34.501Z,12.32
2019-03-04T09:45:42.466Z,12.37
2019-03-04T09:47:50.347Z,12.55
2019-03-04T09:49:58.086Z,12.67
2019-03-04T09:52:06.099Z,12.75
2019-03-04T09:54:13.715Z,12.75
2019-03-04T09:56:21.487Z,12.91
2019-03-04T09:58:29.201Z,12.75
2019-03-04T10:00:53.681Z,12.97
2019-03-04T10:03:37.341Z,13.12
2019-03-04T10:06:28.030Z,13.33
2019-03-04T10:09:07.800Z,13.05
2019-03-04T10:12:07.921Z,13.08
2019-03-04T10:15:08.912Z,13.14
2019-03-04T10:18:07.394Z,13.43
2019-03-04T10:20:51.133Z,13.66
2019-03-04T10:24:04.393Z,13.49
2019-03-04T10:27:12.214Z,13.46
2019-03-04T10:30:12.642Z,13.66
2019-03-04T10:33:40.940Z,13.48
2019-03-04T10:36:28.553Z,13.89
2019-03-04T10:39:05.996Z,13.81
2019-03-04T10:41:37.213Z,14.03
2019-03-04T10:45:01.322Z,14.09
2019-03-04T10:47:09.215Z,13.74
2019-03-04T10:49:16.979Z,13.75
2019-03-04T10:51:25.129Z,13.87
2019-03-04T10:53:33.307Z,14.07
2019-03-04T10:55:42.323Z,13.86
2019-03-04T10:57:50.435Z,13.87
2019-03-04T10:59:58.298Z,13.72
2019-03-04T11:02:06.598Z,13.81
2019-03-04T11:04:14.436Z,13.99
2019-03-04T11:06:22.239Z,14.19
2019-03-04T11:08:30.084Z,14.37
2019-03-04T11:10:38.036Z,14.47
2019-03-04T11:12:45.718Z,14.95
2019-03-04T11:14:53.596Z,14.80
2019-03-04T11:17:01.281Z,14.79
2019-03-04T11:19:09.388Z,14.80
2019-03-04T11:21:17.139Z,14.94
2019-03-04T11:23:25.505Z,14.90
2019-03-04T11:25:33.817Z,14.82
2019-03-04T11:27:41.745Z,14.92
2019-03-04T11:29:49.525Z,14.92
2019-03-04T11:31:57.237Z,14.68
2019-03-04T11:34:05.175Z,14.65
2019-03-04T11:36:12.941Z,14.58
2019-03-04T11:38:42.381Z,14.54
2019-03-04T11:40:50.308Z,14.45
2019-03-04T11:42:58.001Z,14.32
2019-03-04T11:45:08.219Z,14.26
2019-03-04T11:47:16.236Z,14.13
2019-03-04T11:49:24.145Z,14.06
2019-03-04T11:51:31.849Z,14.02
2019-03-04T11:53:39.633Z,13.96
2019-03-04T11:55:47.330Z,14.02
2019-03-04T11:57:55.214Z,13.99
2019-03-04T12:00:09.257Z,13.88
2019-03-04T12:02:21.497Z,13.97
2019-03-04T12:04:29.117Z,13.97
2019-03-04T12:06:36.779Z,14.01
2019-03-04T12:08:44.492Z,14.06
2019-03-04T12:10:52.279Z,13.94
2019-03-04T12:13:00.294Z,13.84
2019-03-04T12:15:10.464Z,13.86
2019-03-04T12:17:19.435Z,13.82
2019-03-04T12:19:28.820Z,13.90
2019-03-04T12:21:36.673Z,13.91
2019-03-04T12:23:44.396Z,13.95
2019-03-04T12:25:52.262Z,14.13
2019-03-04T12:28:00.215Z,14.29
2019-03-04T12:30:11.233Z,14.40
2019-03-04T12:32:31.658Z,14.78
2019-03-04T12:34:39.352Z,14.83
2019-03-04T12:36:47.002Z,14.92
2019-03-04T12:38:54.703Z,14.91
2019-03-04T12:41:02.530Z,15.01
2019-03-04T12:43:10.375Z,14.76
2019-03-04T12:45:18.541Z,14.83
2019-03-04T12:47:26.228Z,14.81
2019-03-04T12:49:33.885Z,14.70
2019-03-04T12:51:41.743Z,14.79
2019-03-04T12:53:50.190Z,14.73
2019-03-04T12:55:57.807Z,14.74
2019-03-04T12:58:06.176Z,14.62
2019-03-04T13:00:18.410Z,14.69
2019-03-04T13:02:26.131Z,14.90
2019-03-04T13:04:33.798Z,14.89
2019-03-04T13:06:41.811Z,14.88
2019-03-04T13:08:49.575Z,14.84
2019-03-04T13:10:57.406Z,14.82
2019-03-04T13:13:05.124Z,14.77
2019-03-04T13:15:19.339Z,14.73
2019-03-04T13:17:27.139Z,14.70
2019-03-04T13:19:34.854Z,14.69
2019-03-04T13:21:42.364Z,14.64
2019-03-04T13:23:50.147Z,14.60
2019-03-04T13:25:57.835Z,14.65
2019-03-04T13:28:08.615Z,14.61
2019-03-04T13:30:21.458Z,14.60
2019-03-04T13:32:28.987Z,14.62
2019-03-04T13:34:36.709Z,14.63
2019-03-04T13:36:44.468Z,14.69
2019-03-04T13:38:52.076Z,14.67
2019-03-04T13:40:59.984Z,14.74
2019-03-04T13:43:08.037Z,14.73
2019-03-04T13:45:16.538Z,14.74
2019-03-04T13:47:24.276Z,14.78
2019-03-04T13:49:32.082Z,14.76
2019-03-04T13:51:39.813Z,14.77
2019-03-04T13:53:47.551Z,14.71
2019-03-04T13:55:55.372Z,14.77
2019-03-04T13:58:03.109Z,14.70
2019-03-04T14:00:15.838Z,14.68
2019-03-04T14:02:23.400Z,14.64
2019-03-04T14:04:30.968Z,14.72
2019-03-04T14:06:38.743Z,14.75
2019-03-04T14:08:46.674Z,14.74
2019-03-04T14:10:54.485Z,14.81
2019-03-04T14:13:02.161Z,14.84
2019-03-04T14:15:14.934Z,14.78
2019-03-04T14:17:22.741Z,14.77
2019-03-04T14:19:30.764Z,14.76
2019-03-04T14:21:38.582Z,14.69
2019-03-04T14:23:47.065Z,14.66
2019-03-04T14:25:54.901Z,14.65
2019-03-04T14:28:02.764Z,14.68
2019-03-04T14:30:14.755Z,14.66
2019-03-04T14:32:22.535Z,14.68
2019-03-04T14:34:30.174Z,14.72
2019-03-04T14:36:37.949Z,14.73
2019-03-04T14:38:46.570Z,14.88
2019-03-04T14:40:54.310Z,14.90
2019-03-04T14:43:02.049Z,14.88
2019-03-04T14:45:12.404Z,14.91
2019-03-04T14:47:20.158Z,14.93
2019-03-04T14:49:28.089Z,14.83
2019-03-04T14:51:35.921Z,14.78
2019-03-04T14:53:43.896Z,14.69
2019-03-04T14:55:51.702Z,14.60
2019-03-04T14:58:01.795Z,14.56
2019-03-04T15:00:14.904Z,14.48
2019-03-04T15:02:22.695Z,14.64
2019-03-04T15:04:30.665Z,14.54
2019-03-04T15:06:38.495Z,14.52
2019-03-04T15:08:46.157Z,14.44
2019-03-04T15:10:53.973Z,14.45
2019-03-04T15:13:01.867Z,14.43
2019-03-04T15:15:09.739Z,14.48
2019-03-04T15:17:20.832Z,14.43
2019-03-04T15:19:28.479Z,14.40
2019-03-04T15:21:36.498Z,14.44
2019-03-04T15:23:44.201Z,14.32
2019-03-04T15:25:52.061Z,14.33
2019-03-04T15:28:15.443Z,14.35
2019-03-04T15:30:23.255Z,14.34
2019-03-04T15:32:30.966Z,14.30
2019-03-04T15:34:38.599Z,14.38
2019-03-04T15:36:46.372Z,14.47
2019-03-04T15:38:54.399Z,14.43
2019-03-04T15:41:02.202Z,14.50
2019-03-04T15:43:10.149Z,14.55
2019-03-04T15:45:18.123Z,14.48
2019-03-04T15:47:26.066Z,14.45
2019-03-04T15:49:33.839Z,14.45
2019-03-04T15:51:41.718Z,14.55
2019-03-04T15:53:49.644Z,14.44
2019-03-04T15:55:57.595Z,14.54
2019-03-04T15:58:06.253Z,14.44
2019-03-04T16:00:14.447Z,14.44
2019-03-04T16:02:22.367Z,14.43
2019-03-04T16:04:30.326Z,14.44
2019-03-04T16:06:38.324Z,14.37
2019-03-04T16:08:45.997Z,14.38
2019-03-04T16:10:53.794Z,14.37
2019-03-04T16:13:01.757Z,14.27
2019-03-04T16:15:12.615Z,14.29
2019-03-04T16:17:20.529Z,14.30
2019-03-04T16:19:28.633Z,14.27
2019-03-04T16:21:36.500Z,14.28
2019-03-04T16:23:44.753Z,14.12
2019-03-04T16:25:52.739Z,14.11
2019-03-04T16:28:15.918Z,14.06
2019-03-04T16:30:23.904Z,13.96
2019-03-04T16:32:31.713Z,13.93
2019-03-04T16:34:39.595Z,13.93
2019-03-04T16:36:47.568Z,13.87
2019-03-04T16:38:55.549Z,13.78
2019-03-04T16:41:03.594Z,13.76
2019-03-04T16:43:11.625Z,13.72
2019-03-04T16:45:19.530Z,13.76
2019-03-04T16:47:27.753Z,13.60
2019-03-04T16:49:35.873Z,13.50
2019-03-04T16:51:43.931Z,13.57
2019-03-04T16:53:51.915Z,13.63
2019-03-04T16:56:00.077Z,13.51
2019-03-04T16:58:08.238Z,13.59
2019-03-04T17:00:20.833Z,13.52
2019-03-04T17:02:29.653Z,13.44
2019-03-04T17:04:38.249Z,13.45
2019-03-04T17:06:47.707Z,13.42
2019-03-04T17:08:56.764Z,13.36
2019-03-04T17:11:05.753Z,13.41
2019-03-04T17:13:15.439Z,13.37
2019-03-04T17:15:24.692Z,13.33
2019-03-04T17:17:33.235Z,13.27
2019-03-04T17:19:42.055Z,13.40
2019-03-04T17:21:50.198Z,13.32
2019-03-04T17:23:58.435Z,13.26
2019-03-04T17:26:06.397Z,13.22
2019-03-04T17:28:14.534Z,13.17
2019-03-04T17:30:23.072Z,13.14
2019-03-04T17:32:31.541Z,13.15
2019-03-04T17:34:39.935Z,13.13
2019-03-04T17:36:48.579Z,13.06
2019-03-04T17:38:57.355Z,13.17
2019-03-04T17:41:06.228Z,13.31
2019-03-04T17:43:14.320Z,13.22
2019-03-04T17:45:24.296Z,13.16
2019-03-04T17:47:32.223Z,13.23
2019-03-04T17:49:40.160Z,13.31
2019-03-04T17:51:48.227Z,13.31
2019-03-04T17:53:56.182Z,13.30
2019-03-04T17:56:04.135Z,13.31
2019-03-04T17:58:12.359Z,13.52
2019-03-04T18:00:20.772Z,13.54
2019-03-04T18:02:29.371Z,13.46
2019-03-04T18:04:38.034Z,13.55
2019-03-04T18:06:46.012Z,13.62
2019-03-04T18:08:54.469Z,13.55
2019-03-04T18:11:02.637Z,13.53
2019-03-04T18:13:11.800Z,13.65
2019-03-04T18:15:22.352Z,13.70
2019-03-04T18:17:31.304Z,13.65
2019-03-04T18:19:39.637Z,13.55
2019-03-04T18:21:47.643Z,13.55
2019-03-04T18:23:55.676Z,13.50
2019-03-04T18:26:13.509Z,13.62
2019-03-04T18:29:11.582Z,13.51
2019-03-04T18:31:44.612Z,13.62
2019-03-04T18:34:44.837Z,13.68
2019-03-04T18:37:49.007Z,13.68
2019-03-04T18:40:52.085Z,13.63
2019-03-04T18:43:44.971Z,13.72
2019-03-04T18:46:51.737Z,13.76
2019-03-04T18:49:03.154Z,13.85
2019-03-04T18:51:10.941Z,13.89
2019-03-04T18:53:18.964Z,13.93
2019-03-04T18:55:27.223Z,13.96
2019-03-04T18:57:35.240Z,13.97
2019-03-04T18:59:43.249Z,14.06
2019-03-04T19:01:50.985Z,14.06
2019-03-04T19:03:58.663Z,14.02
2019-03-04T19:06:06.492Z,14.06
2019-03-04T19:08:14.419Z,14.05
2019-03-04T19:10:22.346Z,14.09
2019-03-04T19:12:30.228Z,14.08
2019-03-04T19:14:38.207Z,13.98
2019-03-04T19:16:46.436Z,13.96
2019-03-04T19:18:54.342Z,13.95
2019-03-04T19:21:03.375Z,13.90
2019-03-04T19:23:11.465Z,13.80
2019-03-04T19:25:19.408Z,13.90
2019-03-04T19:27:27.249Z,13.86
2019-03-04T19:29:35.048Z,13.80
2019-03-04T19:31:42.851Z,13.79
2019-03-04T19:33:50.962Z,13.78
2019-03-04T19:35:58.901Z,13.67
2019-03-04T19:38:07.087Z,13.70
2019-03-04T19:40:17.248Z,13.71
2019-03-04T19:42:25.389Z,13.74
2019-03-04T19:44:33.426Z,13.65
2019-03-04T19:46:41.427Z,13.63
2019-03-04T19:48:49.429Z,13.56
2019-03-04T19:50:57.272Z,13.52
2019-03-04T19:53:05.328Z,13.51
2019-03-04T19:55:13.597Z,13.44
2019-03-04T19:57:21.478Z,13.48
2019-03-04T19:59:29.465Z,13.45
2019-03-04T20:01:37.533Z,13.43
2019-03-04T20:03:45.635Z,13.41
2019-03-04T20:05:53.599Z,13.33
2019-03-04T20:08:01.503Z,13.27
2019-03-04T20:10:11.353Z,13.24
2019-03-04T20:12:19.382Z,13.24
2019-03-04T20:14:27.634Z,13.32
2019-03-04T20:16:35.534Z,13.28
2019-03-04T20:18:43.708Z,13.20
2019-03-04T20:20:51.574Z,13.09
2019-03-04T20:22:59.405Z,13.18
2019-03-04T20:25:08.308Z,13.07
2019-03-04T20:27:16.069Z,13.04
2019-03-04T20:29:24.000Z,13.04
2019-03-04T20:31:31.937Z,13.00
2019-03-04T20:33:40.259Z,13.07
2019-03-04T20:35:49.713Z,13.00
2019-03-04T20:37:58.587Z,12.99
2019-03-04T20:40:07.482Z,13.00
2019-03-04T20:42:15.565Z,12.94
2019-03-04T20:44:23.528Z,12.89
2019-03-04T20:46:32.048Z,12.86
2019-03-04T20:48:40.322Z,12.84
2019-03-04T20:50:48.502Z,12.82
2019-03-04T20:52:56.610Z,12.78
2019-03-04T20:55:05.005Z,12.82
2019-03-04T20:57:12.750Z,12.75
2019-03-04T20:59:20.669Z,12.80
2019-03-04T21:01:28.631Z,12.77
2019-03-04T21:03:38.506Z,12.79
2019-03-04T21:05:46.454Z,12.74
2019-03-04T21:07:54.498Z,12.69
2019-03-04T21:10:02.446Z,12.78
2019-03-04T21:12:10.644Z,12.69
2019-03-04T21:14:18.871Z,12.64
2019-03-04T21:16:26.750Z,12.61
2019-03-04T21:18:34.766Z,12.66
2019-03-04T21:20:42.805Z,12.64
2019-03-04T21:22:50.788Z,12.62
2019-03-04T21:24:58.605Z,12.55
2019-03-04T21:27:06.872Z,12.46
2019-03-04T21:30:00.347Z,12.43
2019-03-04T21:33:19.852Z,12.40
2019-03-04T21:36:34.997Z,12.33
2019-03-04T21:38:42.816Z,12.22
2019-03-04T21:41:31.774Z,12.15
2019-03-04T21:43:50.717Z,12.13
2019-03-04T21:46:57.214Z,12.08
2019-03-04T21:49:09.679Z,12.01
2019-03-04T21:52:01.725Z,11.97
2019-03-04T21:54:10.279Z,12.00
2019-03-04T21:57:03.372Z,11.97
2019-03-04T21:59:11.476Z,11.88
2019-03-04T22:01:35.893Z,11.86
2019-03-04T22:03:43.912Z,11.85
2019-03-04T22:05:51.840Z,11.84
2019-03-04T22:07:59.937Z,11.87
2019-03-04T22:10:09.105Z,12.01
2019-03-04T22:12:17.885Z,12.01
2019-03-04T22:14:25.982Z,12.04
2019-03-04T22:16:34.000Z,12.05
2019-03-04T22:18:41.921Z,12.04
2019-03-04T22:20:49.767Z,12.08
2019-03-04T22:22:57.357Z,12.03
2019-03-04T22:25:05.805Z,11.98
2019-03-04T22:27:13.483Z,11.97
2019-03-04T22:29:21.343Z,11.97
2019-03-04T22:31:29.312Z,11.91
2019-03-04T22:33:37.237Z,11.85
2019-03-04T22:35:45.225Z,11.81
2019-03-04T22:37:54.120Z,11.80
2019-03-04T22:40:01.902Z,11.74
2019-03-04T22:42:09.888Z,11.67
2019-03-04T22:44:17.598Z,11.65
2019-03-04T22:46:25.312Z,11.63
2019-03-04T22:48:32.928Z,11.62
2019-03-04T22:50:40.837Z,11.57
2019-03-04T22:52:48.572Z,11.53
2019-03-04T22:54:56.723Z,11.43
2019-03-04T22:57:04.689Z,11.32
2019-03-04T22:59:12.372Z,11.42
2019-03-04T23:01:39.391Z,11.40
2019-03-04T23:03:47.545Z,11.38
2019-03-04T23:05:55.422Z,11.32
2019-03-04T23:08:03.148Z,11.24
2019-03-04T23:10:56.949Z,11.25
2019-03-04T23:13:57.652Z,11.22
2019-03-04T23:16:19.989Z,11.13
2019-03-04T23:18:27.714Z,11.02
2019-03-04T23:20:35.386Z,10.89
2019-03-04T23:22:43.223Z,10.83
2019-03-04T23:24:51.427Z,10.80
2019-03-04T23:26:59.702Z,10.70
2019-03-04T23:29:07.515Z,10.63
2019-03-04T23:31:15.273Z,10.54
2019-03-04T23:33:23.302Z,10.45
2019-03-04T23:35:31.272Z,10.40
2019-03-04T23:37:39.198Z,10.35
2019-03-04T23:39:46.907Z,10.18
2019-03-04T23:41:54.522Z,10.18
2019-03-04T23:44:02.227Z,10.01
2019-03-04T23:46:10.114Z,10.00
2019-03-04T23:48:17.948Z,9.91
2019-03-04T23:50:26.057Z,9.76
2019-03-04T23:52:33.718Z,9.82
2019-03-04T23:54:41.463Z,9.67
2019-03-04T23:56:49.100Z,9.62
2019-03-04T23:58:56.960Z,9.41
